Ocean Outback — 9V8072 — position and weather

sailwx.info

Track history (hours):
 
Tides and Currents Weather Stations Pressure Air Temp Water Temp Dewpoint Dewpoint Depression Visibility Wind Speed Wind Dir Waves Ship Positions

Ocean Outback

Last reported at 2015-Sep-04 12:26 UTC. Time now 2015-Sep-05 14:15 UTC.
Position N 37°49' E 122°29'.

Length 136 m; draft 7.5 m.

Type: Ship. MMSI: 563745000.

Date/timePositionNaut miles runAvg speedWind from/ knotsBaromVisibWave heightAir tempDewpointWater temp
2015-Sep-04 12:26N 37°49' E 122°29'1315.2
2015-Sep-04 11:33N 37°57' E 122°14'2015.5
2015-Sep-04 10:15N 38°06' E 121°52'8113.9
2015-Sep-04 04:26N 38°37' E 120°16'3015.2
2015-Sep-04 02:26N 38°42' E 119°38'1415.4
2015-Sep-04 01:32N 38°44' E 119°20'76 3.4
2015-Sep-03 03:22N 39°03' E 117°46'0 0.0
2015-Sep-02 19:28N 39°03' E 117°46'0 0.0
2015-Sep-02 18:28N 39°03' E 117°46'0 0.0
2015-Sep-02 17:10N 39°03' E 117°46'0 0.0
2015-Sep-02 16:04N 39°03' E 117°46'0 0.0
2015-Sep-02 15:22N 39°03' E 117°46'0 0.0
2015-Sep-02 14:28N 39°03' E 117°46'0 0.0
2015-Sep-02 13:33N 39°03' E 117°46'0 0.0
2015-Sep-02 12:33N 39°03' E 117°46'0 0.0
2015-Sep-02 11:33N 39°03' E 117°46'0 0.0
2015-Sep-02 10:27N 39°03' E 117°46'0 0.0
2015-Sep-02 09:33N 39°03' E 117°46'0 0.0
2015-Sep-02 08:33N 39°03' E 117°46'2 2.4
2015-Sep-02 07:33N 39°00' E 117°47'10 9.8
2015-Sep-02 06:30N 38°57' E 117°59'213 5.3
2015-Aug-31 14:05N 37°57' E 122°20'6714.3
2015-Aug-31 09:26N 37°01' E 123°06'1915.7
2015-Aug-31 08:12N 36°43' E 123°11'  
Track history (hours):
 
Tides and Currents Weather Stations Pressure Air Temp Water Temp Dewpoint Dewpoint Depression Visibility Wind Speed Wind Dir Waves Ship Positions

Ocean Outback

Last reported at 2015-Sep-04 12:26 UTC. Time now 2015-Sep-05 14:15 UTC.
Position N 37°49' E 122°29'.

Length 136 m; draft 7.5 m.

Type: Ship. MMSI: 563745000.

Date/timePositionNaut miles runAvg speedWind from/ knotsBaromVisibWave heightAir tempDewpointWater temp
2015-Sep-04 12:26N 37°49' E 122°29'1315.2
2015-Sep-04 11:33N 37°57' E 122°14'2015.5
2015-Sep-04 10:15N 38°06' E 121°52'8113.9
2015-Sep-04 04:26N 38°37' E 120°16'3015.2
2015-Sep-04 02:26N 38°42' E 119°38'1415.4
2015-Sep-04 01:32N 38°44' E 119°20'76 3.4
2015-Sep-03 03:22N 39°03' E 117°46'0 0.0
2015-Sep-02 19:28N 39°03' E 117°46'0 0.0
2015-Sep-02 18:28N 39°03' E 117°46'0 0.0
2015-Sep-02 17:10N 39°03' E 117°46'0 0.0
2015-Sep-02 16:04N 39°03' E 117°46'0 0.0
2015-Sep-02 15:22N 39°03' E 117°46'0 0.0
2015-Sep-02 14:28N 39°03' E 117°46'0 0.0
2015-Sep-02 13:33N 39°03' E 117°46'0 0.0
2015-Sep-02 12:33N 39°03' E 117°46'0 0.0
2015-Sep-02 11:33N 39°03' E 117°46'0 0.0
2015-Sep-02 10:27N 39°03' E 117°46'0 0.0
2015-Sep-02 09:33N 39°03' E 117°46'0 0.0
2015-Sep-02 08:33N 39°03' E 117°46'2 2.4
2015-Sep-02 07:33N 39°00' E 117°47'10 9.8
2015-Sep-02 06:30N 38°57' E 117°59'213 5.3
2015-Aug-31 14:05N 37°57' E 122°20'6714.3
2015-Aug-31 09:26N 37°01' E 123°06'1915.7
2015-Aug-31 08:12N 36°43' E 123°11'  

Dump ship's entire track history